createdAt,value
2023-05-24T00:00:32.314Z,97142.25
2023-05-24T00:03:03.750Z,97145.65
2023-05-24T00:05:31.568Z,97141.30
2023-05-24T00:07:59.747Z,97131.91
2023-05-24T00:10:27.465Z,97134.61
2023-05-24T00:12:55.364Z,97135.20
2023-05-24T00:15:23.043Z,97130.44
2023-05-24T00:17:51.154Z,97139.12
2023-05-24T00:20:20.173Z,97130.70
2023-05-24T00:22:47.782Z,97136.78
2023-05-24T00:25:15.681Z,97130.30
2023-05-24T00:27:43.383Z,97133.26
2023-05-24T00:30:11.930Z,97131.57
2023-05-24T00:32:39.803Z,97131.38
2023-05-24T00:35:08.288Z,97133.88
2023-05-24T00:37:36.991Z,97136.59
2023-05-24T00:40:06.133Z,97135.50
2023-05-24T00:42:33.691Z,97139.45
2023-05-24T00:45:01.711Z,97140.34
2023-05-24T00:47:30.008Z,97134.27
2023-05-24T00:49:57.832Z,97138.47
2023-05-24T00:52:25.997Z,97134.42
2023-05-24T00:54:53.658Z,97134.11
2023-05-24T00:57:23.279Z,97138.62
2023-05-24T00:59:52.666Z,97136.81
2023-05-24T01:02:22.162Z,97138.73
2023-05-24T01:04:49.988Z,97135.36
2023-05-24T01:07:58.623Z,97138.06
2023-05-24T01:10:44.509Z,97138.84
2023-05-24T01:13:37.526Z,97134.23
2023-05-24T01:16:18.939Z,97129.97
2023-05-24T01:18:51.979Z,97130.65
2023-05-24T01:21:54.208Z,97131.51
2023-05-24T01:24:39.426Z,97129.17
2023-05-24T01:27:30.766Z,97130.52
2023-05-24T01:30:00.295Z,97123.67
2023-05-24T01:32:28.902Z,97123.21
2023-05-24T01:34:56.860Z,97121.86
2023-05-24T01:37:24.647Z,97122.22
2023-05-24T01:39:52.788Z,97114.48
2023-05-24T01:42:34.716Z,97116.37
2023-05-24T01:45:31.630Z,97112.89
2023-05-24T01:48:26.237Z,97114.59
2023-05-24T01:51:03.449Z,97112.57
2023-05-24T01:53:34.917Z,97113.25
2023-05-24T01:56:05.890Z,97114.38
2023-05-24T01:58:35.487Z,97125.38
2023-05-24T02:01:03.466Z,97130.77
2023-05-24T02:03:32.146Z,97126.16
2023-05-24T02:05:59.737Z,97126.41
2023-05-24T02:08:27.439Z,97116.05
2023-05-24T02:10:55.441Z,97118.95
2023-05-24T02:13:23.126Z,97117.07
2023-05-24T02:15:52.913Z,97118.95
2023-05-24T02:18:22.199Z,97122.68
2023-05-24T02:20:50.433Z,97123.56
2023-05-24T02:23:18.444Z,97116.62
2023-05-24T02:25:46.018Z,97116.16
2023-05-24T02:28:13.749Z,97113.81
2023-05-24T02:30:45.615Z,97111.47
2023-05-24T02:33:13.658Z,97110.34
2023-05-24T02:35:41.492Z,97115.52
2023-05-24T02:38:09.205Z,97125.94
2023-05-24T02:40:37.128Z,97115.16
2023-05-24T02:43:04.788Z,97114.95
2023-05-24T02:45:32.629Z,97111.80
2023-05-24T02:48:00.873Z,97122.36
2023-05-24T02:50:28.659Z,97116.51
2023-05-24T02:52:57.822Z,97121.47
2023-05-24T02:55:26.450Z,97122.81
2023-05-24T02:57:55.899Z,97121.69
2023-05-24T03:00:25.090Z,97122.25
2023-05-24T03:02:55.158Z,97117.72
2023-05-24T03:05:22.882Z,97120.17
2023-05-24T03:07:51.264Z,97125.75
2023-05-24T03:10:19.011Z,97132.79
2023-05-24T03:12:46.858Z,97132.64
2023-05-24T03:15:14.758Z,97129.46
2023-05-24T03:17:42.367Z,97129.80
2023-05-24T03:20:11.412Z,97128.78
2023-05-24T03:22:39.191Z,97129.13
2023-05-24T03:25:08.409Z,97124.83
2023-05-24T03:27:36.662Z,97122.92
2023-05-24T03:30:06.301Z,97131.61
2023-05-24T03:32:35.954Z,97135.17
2023-05-24T03:35:05.769Z,97136.20
2023-05-24T03:37:33.961Z,97135.65
2023-05-24T03:40:03.697Z,97136.05
2023-05-24T03:42:35.442Z,97139.97
2023-05-24T03:45:04.639Z,97137.54
2023-05-24T03:47:32.430Z,97136.67
2023-05-24T03:50:00.252Z,97137.50
2023-05-24T03:52:28.273Z,97136.30
2023-05-24T03:54:56.420Z,97135.25
2023-05-24T03:57:24.496Z,97141.52
2023-05-24T03:59:53.395Z,97139.78
2023-05-24T04:02:21.453Z,97139.59
2023-05-24T04:04:49.447Z,97136.06
2023-05-24T04:07:17.309Z,97142.08
2023-05-24T04:09:45.216Z,97131.16
2023-05-24T04:12:13.009Z,97142.30
2023-05-24T04:14:42.522Z,97142.51
2023-05-24T04:17:10.630Z,97145.43
2023-05-24T04:19:38.597Z,97144.05
2023-05-24T04:22:06.511Z,97139.55
2023-05-24T04:24:36.839Z,97144.25
2023-05-24T04:27:05.271Z,97144.06
2023-05-24T04:29:42.661Z,97142.44
2023-05-24T04:32:13.340Z,97146.91
2023-05-24T04:34:59.170Z,97147.22
2023-05-24T04:37:28.541Z,97143.93
2023-05-24T04:39:58.125Z,97144.59
2023-05-24T04:42:27.011Z,97148.72
2023-05-24T04:45:04.739Z,97148.92
2023-05-24T04:47:33.056Z,97149.31
2023-05-24T04:50:01.628Z,97150.73
2023-05-24T04:52:30.717Z,97152.02
2023-05-24T04:55:08.642Z,97142.16
2023-05-24T04:57:50.188Z,97145.30
2023-05-24T05:03:35.061Z,97151.24
2023-05-24T05:06:05.721Z,97155.36
2023-05-24T05:08:37.896Z,97146.25
2023-05-24T05:11:20.632Z,97157.16
2023-05-24T05:14:01.053Z,97158.52
2023-05-24T05:16:39.293Z,97155.50
2023-05-24T05:19:08.838Z,97158.95
2023-05-24T05:22:05.389Z,97155.53
2023-05-24T05:24:41.390Z,97160.33
2023-05-24T05:27:09.887Z,97153.20
2023-05-24T05:43:26.566Z,97168.98
2023-05-24T05:51:55.330Z,97169.34
2023-05-24T05:54:32.966Z,97175.71
2023-05-24T05:57:03.778Z,97169.21
2023-05-24T05:59:33.613Z,97170.33
2023-05-24T06:02:03.097Z,97180.92
2023-05-24T06:04:31.122Z,97178.23
2023-05-24T06:06:59.261Z,97175.15
2023-05-24T06:09:27.392Z,97175.20
2023-05-24T06:11:55.649Z,97178.41
2023-05-24T06:14:26.929Z,97179.00
2023-05-24T06:16:54.998Z,97177.92
2023-05-24T06:19:28.931Z,97168.53
2023-05-24T06:21:57.321Z,97174.73
2023-05-24T06:24:25.595Z,97178.56
2023-05-24T06:26:53.970Z,97174.44
2023-05-24T06:29:26.128Z,97183.66
2023-05-24T06:31:57.105Z,97178.86
2023-05-24T06:34:25.434Z,97175.31
2023-05-24T06:36:53.690Z,97169.28
2023-05-24T06:39:21.679Z,97172.23
2023-05-24T06:41:50.987Z,97172.22
2023-05-24T06:44:25.382Z,97176.87
2023-05-24T06:46:52.808Z,97174.73
2023-05-24T06:52:55.086Z,97172.45
2023-05-24T06:55:37.065Z,97170.24
2023-05-24T06:58:07.087Z,97167.45
2023-05-24T07:00:38.971Z,97165.51
2023-05-24T07:03:07.193Z,97167.03
2023-05-24T07:05:38.977Z,97170.24
2023-05-24T07:08:07.141Z,97171.59
2023-05-24T07:10:35.094Z,97166.30
2023-05-24T07:13:03.680Z,97169.73
2023-05-24T07:15:34.888Z,97165.02
2023-05-24T07:18:07.217Z,97162.19
2023-05-24T07:20:46.024Z,97160.42
2023-05-24T07:23:16.746Z,97160.45
2023-05-24T07:25:45.019Z,97163.94
2023-05-24T07:28:15.130Z,97163.00
2023-05-24T07:30:45.154Z,97164.13
2023-05-24T07:33:31.493Z,97161.79
2023-05-24T07:36:39.415Z,97162.43
2023-05-24T07:39:16.083Z,97163.09
2023-05-24T07:41:51.442Z,97159.40
2023-05-24T07:44:37.747Z,97160.78
2023-05-24T07:47:14.721Z,97163.55
2023-05-24T07:49:49.570Z,97160.85
2023-05-24T07:52:45.571Z,97148.14
2023-05-24T07:55:11.756Z,97159.44
2023-05-24T07:57:49.672Z,97166.95
2023-05-24T08:03:38.488Z,97161.84
2023-05-24T08:06:07.230Z,97158.16
2023-05-24T08:14:57.694Z,97156.30
2023-05-24T08:17:37.186Z,97150.33
2023-05-24T08:20:09.369Z,97148.52
2023-05-24T08:22:37.354Z,97138.34
2023-05-24T08:25:06.463Z,97148.37
2023-05-24T08:27:34.589Z,97142.57
2023-05-24T08:30:10.632Z,97145.25
2023-05-24T08:36:16.025Z,97149.94
2023-05-24T08:38:28.177Z,97150.92
2023-05-24T08:40:58.814Z,97154.48
2023-05-24T08:43:44.821Z,97147.27
2023-05-24T08:46:21.432Z,97145.27
2023-05-24T08:49:08.487Z,97144.20
2023-05-24T08:51:48.294Z,97142.67
2023-05-24T08:54:31.179Z,97144.20
2023-05-24T08:57:00.800Z,97148.20
2023-05-24T09:02:48.685Z,97144.45
2023-05-24T09:05:26.423Z,97146.55
2023-05-24T09:07:56.957Z,97143.08
2023-05-24T09:10:35.402Z,97143.81
2023-05-24T09:13:03.996Z,97141.56
2023-05-24T09:15:55.535Z,97126.13
2023-05-24T09:22:00.268Z,97143.02
2023-05-24T09:28:02.442Z,97137.85
2023-05-24T09:31:06.299Z,97129.83
2023-05-24T09:33:43.701Z,97128.61
2023-05-24T10:07:12.181Z,97130.18
2023-05-24T10:48:35.770Z,97111.60
2023-05-24T10:54:33.687Z,97106.72
2023-05-24T10:57:16.049Z,97104.52
2023-05-24T11:00:09.103Z,97096.77
2023-05-24T11:03:37.539Z,97107.88
2023-05-24T11:13:39.269Z,97101.31
2023-05-24T11:21:36.741Z,97107.98
2023-05-24T11:24:16.728Z,97107.30
2023-05-24T11:39:30.577Z,97110.83
2023-05-24T11:42:34.131Z,97103.75
2023-05-24T11:49:09.845Z,97106.95
2023-05-24T11:52:14.589Z,97105.09
2023-05-24T11:54:36.816Z,97109.80
2023-05-24T11:57:07.524Z,97108.34
2023-05-24T11:59:41.627Z,97111.22
2023-05-24T12:02:11.814Z,97112.83
2023-05-24T12:05:28.798Z,97120.11
2023-05-24T12:08:12.495Z,97113.11
2023-05-24T12:10:53.209Z,97120.05
2023-05-24T12:13:31.021Z,97138.47
2023-05-24T12:16:08.862Z,97128.00
2023-05-24T12:18:55.143Z,97116.17
2023-05-24T12:21:31.276Z,97129.30
2023-05-24T12:24:21.857Z,97130.25
2023-05-24T12:27:20.202Z,97146.55
2023-05-24T12:29:56.452Z,97124.56
2023-05-24T12:32:36.659Z,97134.11
2023-05-24T12:35:47.267Z,97129.08
2023-05-24T12:38:21.925Z,97126.70
2023-05-24T12:41:11.546Z,97123.44
2023-05-24T12:43:30.436Z,97114.93
2023-05-24T12:49:15.566Z,97115.51
2023-05-24T12:51:50.762Z,97114.17
2023-05-24T12:54:26.131Z,97111.59
2023-05-24T12:57:04.068Z,97110.81
2023-05-24T13:00:13.566Z,97111.66
2023-05-24T13:02:46.859Z,97116.67
2023-05-24T13:05:28.721Z,97110.48
2023-05-24T13:07:58.509Z,97112.72
2023-05-24T13:10:29.819Z,97114.41
2023-05-24T13:12:57.761Z,97108.62
2023-05-24T13:15:26.913Z,97106.99
2023-05-24T13:17:55.461Z,97113.28
2023-05-24T13:20:42.392Z,97108.91
2023-05-24T13:23:17.946Z,97109.59
2023-05-24T13:38:24.008Z,97141.16
2023-05-24T14:24:10.148Z,97223.62
2023-05-24T14:26:50.680Z,97216.19
2023-05-24T14:29:20.026Z,97214.98
2023-05-24T14:32:02.835Z,97219.78
2023-05-24T14:34:34.782Z,97211.28
2023-05-24T14:37:03.296Z,97213.36
2023-05-24T14:39:31.449Z,97207.66
2023-05-24T14:41:59.688Z,97212.10
2023-05-24T14:44:31.937Z,97214.39
2023-05-24T14:47:02.069Z,97224.10
2023-05-24T14:49:30.811Z,97208.80
2023-05-24T14:51:59.121Z,97218.47
2023-05-24T14:54:40.677Z,97220.78
2023-05-24T15:07:14.370Z,97203.29
2023-05-24T15:09:46.742Z,97196.17
2023-05-24T15:12:15.438Z,97197.30
2023-05-24T15:17:44.798Z,97217.70
2023-05-24T15:20:32.676Z,97226.02
2023-05-24T15:23:20.003Z,97203.51
2023-05-24T15:29:34.141Z,97208.84
2023-05-24T15:32:14.066Z,97210.28
2023-05-24T15:35:05.090Z,97214.89
2023-05-24T15:53:21.563Z,97216.31
2023-05-24T16:09:49.762Z,97248.92
2023-05-24T16:31:22.722Z,97257.22
2023-05-24T16:33:58.236Z,97248.87
2023-05-24T16:36:32.636Z,97250.05
2023-05-24T16:39:00.217Z,97252.21
2023-05-24T16:41:31.450Z,97247.95
2023-05-24T16:44:02.137Z,97247.38
2023-05-24T16:46:42.221Z,97247.03
2023-05-24T16:49:12.837Z,97241.99
2023-05-24T16:51:50.226Z,97242.80
2023-05-24T16:54:24.613Z,97243.00
2023-05-24T16:56:57.786Z,97245.09
2023-05-24T16:59:30.316Z,97240.63
2023-05-24T17:01:58.763Z,97241.64
2023-05-24T17:04:36.745Z,97243.20
2023-05-24T17:07:11.710Z,97248.43
2023-05-24T17:09:41.815Z,97244.70
2023-05-24T17:12:12.755Z,97247.42
2023-05-24T17:14:42.493Z,97245.09
2023-05-24T17:19:51.624Z,97241.39
2023-05-24T17:25:29.992Z,97240.77
2023-05-24T17:27:58.392Z,97249.12
2023-05-24T17:30:32.881Z,97250.85
2023-05-24T17:33:16.868Z,97249.06
2023-05-24T17:35:48.648Z,97249.75
2023-05-24T17:38:17.617Z,97249.50
2023-05-24T17:40:55.331Z,97245.95
2023-05-24T17:43:24.603Z,97245.91
2023-05-24T17:45:55.924Z,97242.14
2023-05-24T17:48:29.247Z,97246.36
2023-05-24T17:51:15.075Z,97242.23
2023-05-24T17:56:29.205Z,97238.64
2023-05-24T18:02:19.189Z,97228.52
2023-05-24T18:04:47.496Z,97251.80
2023-05-24T18:10:06.271Z,97252.16
2023-05-24T18:12:36.244Z,97250.16
2023-05-24T18:21:33.084Z,97266.67
2023-05-24T18:24:00.814Z,97270.52
2023-05-24T18:26:32.296Z,97274.58
2023-05-24T18:32:30.907Z,97278.45
2023-05-24T18:35:07.672Z,97281.55
2023-05-24T18:37:36.399Z,97282.52
2023-05-24T18:40:07.706Z,97290.23
2023-05-24T18:42:37.617Z,97291.59
2023-05-24T18:45:07.081Z,97296.03
2023-05-24T18:47:37.768Z,97300.11
2023-05-24T18:50:23.628Z,97305.53
2023-05-24T18:56:23.847Z,97310.95
2023-05-24T18:58:56.410Z,97313.47
2023-05-24T19:01:27.244Z,97318.89
2023-05-24T19:03:55.599Z,97319.47
2023-05-24T19:06:23.926Z,97315.05
2023-05-24T19:08:51.986Z,97325.45
2023-05-24T19:11:20.749Z,97331.83
2023-05-24T19:13:48.764Z,97332.17
2023-05-24T19:16:16.772Z,97329.45
2023-05-24T19:18:45.326Z,97336.04
2023-05-24T19:23:42.781Z,97341.41
2023-05-24T19:26:12.131Z,97342.56
2023-05-24T19:28:48.859Z,97349.69
2023-05-24T19:31:30.532Z,97343.85
2023-05-24T19:34:01.329Z,97346.42
2023-05-24T19:36:33.745Z,97346.63
2023-05-24T19:39:03.654Z,97344.49
2023-05-24T19:41:34.184Z,97349.91
2023-05-24T19:47:09.285Z,97352.19
2023-05-24T19:49:40.659Z,97350.63
2023-05-24T19:52:19.976Z,97348.06
2023-05-24T19:54:56.448Z,97351.92
2023-05-24T19:57:28.908Z,97350.37
2023-05-24T20:00:01.642Z,97350.37
2023-05-24T20:02:51.717Z,97346.11
2023-05-24T20:05:23.762Z,97352.64
2023-05-24T20:08:13.500Z,97353.80
2023-05-24T20:10:51.922Z,97359.91
2023-05-24T20:13:26.944Z,97361.84
2023-05-24T20:16:04.733Z,97357.40
2023-05-24T20:18:48.171Z,97356.41
2023-05-24T20:21:21.430Z,97361.27
2023-05-24T20:23:52.237Z,97363.74
2023-05-24T20:26:22.276Z,97359.13
2023-05-24T20:28:51.789Z,97361.47
2023-05-24T20:31:21.581Z,97356.63
2023-05-24T20:33:53.752Z,97361.27
2023-05-24T20:36:23.665Z,97356.41
2023-05-24T20:38:51.876Z,97366.83
2023-05-24T20:41:28.378Z,97365.27
2023-05-24T20:43:56.551Z,97362.76
2023-05-24T20:46:25.151Z,97371.67
2023-05-24T20:48:54.011Z,97369.16
2023-05-24T20:51:25.337Z,97371.67
2023-05-24T20:53:53.660Z,97376.45
2023-05-24T20:56:25.359Z,97381.24
2023-05-24T20:58:53.992Z,97388.19
2023-05-24T21:01:22.575Z,97390.46
2023-05-24T21:03:51.543Z,97394.97
2023-05-24T21:06:22.670Z,97401.03
2023-05-24T21:08:51.240Z,97402.53
2023-05-24T21:11:19.554Z,97407.58
2023-05-24T21:13:52.281Z,97405.23
2023-05-24T21:16:24.866Z,97407.30
2023-05-24T21:18:54.698Z,97413.44
2023-05-24T21:21:24.110Z,97408.52
2023-05-24T21:23:59.967Z,97408.66
2023-05-24T21:26:28.327Z,97408.31
2023-05-24T21:28:56.920Z,97411.58
2023-05-24T21:31:27.088Z,97415.09
2023-05-24T21:33:55.949Z,97411.03
2023-05-24T21:36:24.159Z,97415.64
2023-05-24T21:38:53.342Z,97418.93
2023-05-24T21:41:22.056Z,97416.59
2023-05-24T21:43:50.135Z,97420.66
2023-05-24T21:46:18.483Z,97423.16
2023-05-24T21:48:46.847Z,97423.87
2023-05-24T21:51:15.406Z,97416.37
2023-05-24T21:53:43.582Z,97423.00
2023-05-24T21:56:11.856Z,97420.92
2023-05-24T21:58:39.816Z,97417.93
2023-05-24T22:01:08.411Z,97418.47
2023-05-24T22:03:38.034Z,97422.91
2023-05-24T22:06:06.368Z,97419.55
2023-05-24T22:08:34.290Z,97420.83
2023-05-24T22:11:02.437Z,97434.42
2023-05-24T22:13:30.571Z,97436.84
2023-05-24T22:15:58.577Z,97437.47
2023-05-24T22:18:27.944Z,97435.62
2023-05-24T22:20:59.284Z,97433.04
2023-05-24T22:23:27.758Z,97436.53
2023-05-24T22:25:55.747Z,97435.17
2023-05-24T22:28:24.379Z,97430.54
2023-05-24T22:30:52.524Z,97427.05
2023-05-24T22:33:20.320Z,97428.61
2023-05-24T22:35:48.357Z,97427.50
2023-05-24T22:38:16.564Z,97430.05
2023-05-24T22:40:46.179Z,97433.53
2023-05-24T22:43:14.856Z,97432.42
2023-05-24T22:45:43.068Z,97427.98
2023-05-24T22:48:17.614Z,97425.08
2023-05-24T22:50:49.159Z,97418.88
2023-05-24T22:53:17.630Z,97407.27
2023-05-24T22:55:45.928Z,97416.91
2023-05-24T22:58:15.040Z,97412.64
2023-05-24T23:00:42.970Z,97412.98
2023-05-24T23:03:11.548Z,97419.41
2023-05-24T23:05:40.908Z,97420.98
2023-05-24T23:08:13.290Z,97416.13
2023-05-24T23:10:44.664Z,97423.35
2023-05-24T23:13:14.470Z,97424.91
2023-05-24T23:15:43.079Z,97420.48
2023-05-24T23:18:13.223Z,97420.36
2023-05-24T23:20:41.500Z,97423.84
2023-05-24T23:23:09.387Z,97421.71
2023-05-24T23:25:37.552Z,97426.34
2023-05-24T23:28:06.144Z,97429.31
2023-05-24T23:33:00.943Z,97413.67
2023-05-24T23:35:29.133Z,97432.67
2023-05-24T23:37:57.067Z,97428.52
2023-05-24T23:40:26.980Z,97431.93
2023-05-24T23:42:54.863Z,97430.13
2023-05-24T23:45:22.928Z,97429.14
2023-05-24T23:47:50.990Z,97428.33
2023-05-24T23:50:21.089Z,97433.41
2023-05-24T23:52:49.257Z,97427.63
2023-05-24T23:55:17.640Z,97434.64
2023-05-24T23:57:47.145Z,97433.94
